Sugarloaf Key, Florida
Current Conditions -  °F | °C
As of 11:53 PM on Saturday 20 Dec 2014 (Local Time) from KNQX Reporting Station
Few Clouds Few Clouds  
Wind Chill: 72°   Ceiling: Unl
Heat Index: 72°   Visibility: 10mi
Dew Point: 68°   Wind: 7mph
Humidity: 87%   Direction: 70°ENE
Pressure: 30.07"   Gusts: NA
Location:  24.6465°N, 81.5399°W
Report Text: KNQX 210453Z AUTO 07006KT 10SM FEW023 22/20 A3007 RMK AO2 SLP182 T02220200 402720194
Loading
Personal Weather Stations






























Interactive Weather Map New forecast layout! Learn more

10-Day Weather Forecast

Advertisements
Track Severe Weather on mobile